sensor_id;sensor_type;location;lat;lon;timestamp;temperature;humidity
13354;DHT22;6746;50.892;4.064;2022-12-07T00:02:23;4.60;99.90
13354;DHT22;6746;50.892;4.064;2022-12-07T00:05:11;4.60;99.90
13354;DHT22;6746;50.892;4.064;2022-12-07T00:08:00;4.50;99.90
13354;DHT22;6746;50.892;4.064;2022-12-07T00:10:48;4.40;99.90
13354;DHT22;6746;50.892;4.064;2022-12-07T00:13:36;4.40;99.90
13354;DHT22;6746;50.892;4.064;2022-12-07T00:16:25;4.40;99.90
13354;DHT22;6746;50.892;4.064;2022-12-07T00:19:13;4.40;99.90
13354;DHT22;6746;50.892;4.064;2022-12-07T00:22:00;4.40;99.90
13354;DHT22;6746;50.892;4.064;2022-12-07T00:24:44;4.50;99.90
13354;DHT22;6746;50.892;4.064;2022-12-07T00:27:22;4.50;99.90
13354;DHT22;6746;50.892;4.064;2022-12-07T00:30:10;4.60;99.90
13354;DHT22;6746;50.892;4.064;2022-12-07T00:32:58;4.60;99.90
13354;DHT22;6746;50.892;4.064;2022-12-07T00:35:46;4.60;99.90
13354;DHT22;6746;50.892;4.064;2022-12-07T00:38:35;4.50;99.90
13354;DHT22;6746;50.892;4.064;2022-12-07T00:41:21;4.50;99.90
13354;DHT22;6746;50.892;4.064;2022-12-07T00:43:59;4.40;99.90
13354;DHT22;6746;50.892;4.064;2022-12-07T00:46:37;4.40;99.90
13354;DHT22;6746;50.892;4.064;2022-12-07T00:49:15;4.40;99.90
13354;DHT22;6746;50.892;4.064;2022-12-07T00:51:53;4.40;99.90
13354;DHT22;6746;50.892;4.064;2022-12-07T00:54:31;4.50;99.90
13354;DHT22;6746;50.892;4.064;2022-12-07T00:57:12;4.50;99.90
13354;DHT22;6746;50.892;4.064;2022-12-07T00:59:50;4.60;99.90
13354;DHT22;6746;50.892;4.064;2022-12-07T01:02:28;4.60;99.90
13354;DHT22;6746;50.892;4.064;2022-12-07T01:05:06;4.70;99.90
13354;DHT22;6746;50.892;4.064;2022-12-07T01:07:54;4.70;99.90
13354;DHT22;6746;50.892;4.064;2022-12-07T01:10:41;4.70;99.90
13354;DHT22;6746;50.892;4.064;2022-12-07T01:13:28;4.60;99.90
13354;DHT22;6746;50.892;4.064;2022-12-07T01:16:06;4.60;99.90
13354;DHT22;6746;50.892;4.064;2022-12-07T01:18:50;4.60;99.90
13354;DHT22;6746;50.892;4.064;2022-12-07T01:21:28;4.60;99.90
13354;DHT22;6746;50.892;4.064;2022-12-07T01:24:15;4.60;99.90
13354;DHT22;6746;50.892;4.064;2022-12-07T01:26:53;4.60;99.90
13354;DHT22;6746;50.892;4.064;2022-12-07T01:29:31;4.60;99.90
13354;DHT22;6746;50.892;4.064;2022-12-07T01:32:09;4.70;99.90
13354;DHT22;6746;50.892;4.064;2022-12-07T01:34:50;4.70;99.90
13354;DHT22;6746;50.892;4.064;2022-12-07T01:37:38;4.80;99.90
13354;DHT22;6746;50.892;4.064;2022-12-07T01:40:26;4.80;99.90
13354;DHT22;6746;50.892;4.064;2022-12-07T01:43:17;4.80;99.90
13354;DHT22;6746;50.892;4.064;2022-12-07T01:46:01;4.80;99.90
13354;DHT22;6746;50.892;4.064;2022-12-07T01:48:39;4.90;99.90
13354;DHT22;6746;50.892;4.064;2022-12-07T01:51:20;4.90;99.90
13354;DHT22;6746;50.892;4.064;2022-12-07T01:53:58;4.90;99.90
13354;DHT22;6746;50.892;4.064;2022-12-07T01:56:36;4.80;99.90
13354;DHT22;6746;50.892;4.064;2022-12-07T01:59:14;4.80;99.90
13354;DHT22;6746;50.892;4.064;2022-12-07T02:01:55;4.80;99.90
13354;DHT22;6746;50.892;4.064;2022-12-07T02:04:33;4.80;99.90
13354;DHT22;6746;50.892;4.064;2022-12-07T02:07:20;4.80;99.90
13354;DHT22;6746;50.892;4.064;2022-12-07T02:10:21;4.80;99.90
13354;DHT22;6746;50.892;4.064;2022-12-07T02:13:12;4.80;99.90
13354;DHT22;6746;50.892;4.064;2022-12-07T02:16:08;4.70;99.90
13354;DHT22;6746;50.892;4.064;2022-12-07T02:25:33;4.60;99.90
13354;DHT22;6746;50.892;4.064;2022-12-07T02:28:36;4.70;99.90
13354;DHT22;6746;50.892;4.064;2022-12-07T02:31:24;4.70;99.90
13354;DHT22;6746;50.892;4.064;2022-12-07T02:34:21;4.80;99.90
13354;DHT22;6746;50.892;4.064;2022-12-07T02:40:34;4.80;99.90
13354;DHT22;6746;50.892;4.064;2022-12-07T02:43:30;4.70;99.90
13354;DHT22;6746;50.892;4.064;2022-12-07T02:46:16;4.50;99.90
13354;DHT22;6746;50.892;4.064;2022-12-07T02:48:53;4.40;99.90
13354;DHT22;6746;50.892;4.064;2022-12-07T02:51:41;4.30;99.90
13354;DHT22;6746;50.892;4.064;2022-12-07T02:54:29;4.20;99.90
13354;DHT22;6746;50.892;4.064;2022-12-07T02:57:21;4.20;99.90
13354;DHT22;6746;50.892;4.064;2022-12-07T03:00:09;4.10;99.90
13354;DHT22;6746;50.892;4.064;2022-12-07T03:03:00;4.00;99.90
13354;DHT22;6746;50.892;4.064;2022-12-07T03:06:01;4.00;99.90
13354;DHT22;6746;50.892;4.064;2022-12-07T03:08:56;3.90;99.90
13354;DHT22;6746;50.892;4.064;2022-12-07T03:11:52;3.80;99.90
13354;DHT22;6746;50.892;4.064;2022-12-07T03:14:41;3.70;99.90
13354;DHT22;6746;50.892;4.064;2022-12-07T03:17:27;3.70;99.90
13354;DHT22;6746;50.892;4.064;2022-12-07T03:20:11;3.70;99.90
13354;DHT22;6746;50.892;4.064;2022-12-07T03:22:48;3.70;99.90
13354;DHT22;6746;50.892;4.064;2022-12-07T03:25:27;3.60;99.90
13354;DHT22;6746;50.892;4.064;2022-12-07T03:28:05;3.60;99.90
13354;DHT22;6746;50.892;4.064;2022-12-07T03:31:10;3.60;99.90
13354;DHT22;6746;50.892;4.064;2022-12-07T03:34:06;3.60;99.90
13354;DHT22;6746;50.892;4.064;2022-12-07T03:36:46;3.60;99.90
13354;DHT22;6746;50.892;4.064;2022-12-07T03:39:26;3.60;99.90
13354;DHT22;6746;50.892;4.064;2022-12-07T03:42:05;3.70;99.90
13354;DHT22;6746;50.892;4.064;2022-12-07T03:44:53;3.60;99.90
13354;DHT22;6746;50.892;4.064;2022-12-07T03:51:01;3.50;99.90
13354;DHT22;6746;50.892;4.064;2022-12-07T03:54:04;3.40;99.90
13354;DHT22;6746;50.892;4.064;2022-12-07T03:56:39;3.30;99.90
13354;DHT22;6746;50.892;4.064;2022-12-07T03:59:20;3.20;99.90
13354;DHT22;6746;50.892;4.064;2022-12-07T04:02:06;3.20;99.90
13354;DHT22;6746;50.892;4.064;2022-12-07T04:04:54;3.10;99.90
13354;DHT22;6746;50.892;4.064;2022-12-07T04:07:34;3.10;99.90
13354;DHT22;6746;50.892;4.064;2022-12-07T04:10:13;3.10;99.90
13354;DHT22;6746;50.892;4.064;2022-12-07T04:12:50;3.10;99.90
13354;DHT22;6746;50.892;4.064;2022-12-07T04:15:29;3.10;99.90
13354;DHT22;6746;50.892;4.064;2022-12-07T04:18:07;3.00;99.90
13354;DHT22;6746;50.892;4.064;2022-12-07T04:20:45;3.00;99.90
13354;DHT22;6746;50.892;4.064;2022-12-07T04:23:26;2.90;99.90
13354;DHT22;6746;50.892;4.064;2022-12-07T04:26:04;3.00;99.90
13354;DHT22;6746;50.892;4.064;2022-12-07T04:28:52;3.00;99.90
13354;DHT22;6746;50.892;4.064;2022-12-07T04:31:40;3.10;99.90
13354;DHT22;6746;50.892;4.064;2022-12-07T04:34:28;3.10;99.90
13354;DHT22;6746;50.892;4.064;2022-12-07T04:37:16;3.10;99.90
13354;DHT22;6746;50.892;4.064;2022-12-07T04:40:06;3.10;99.90
13354;DHT22;6746;50.892;4.064;2022-12-07T04:42:53;3.00;99.90
13354;DHT22;6746;50.892;4.064;2022-12-07T04:45:39;2.90;99.90
13354;DHT22;6746;50.892;4.064;2022-12-07T04:48:18;2.80;99.90
13354;DHT22;6746;50.892;4.064;2022-12-07T04:51:02;2.70;99.90
13354;DHT22;6746;50.892;4.064;2022-12-07T04:53:39;2.70;99.90
13354;DHT22;6746;50.892;4.064;2022-12-07T04:56:19;2.60;99.90
13354;DHT22;6746;50.892;4.064;2022-12-07T04:58:57;2.60;99.90
13354;DHT22;6746;50.892;4.064;2022-12-07T05:01:38;2.60;99.90
13354;DHT22;6746;50.892;4.064;2022-12-07T05:04:16;2.60;99.90
13354;DHT22;6746;50.892;4.064;2022-12-07T05:06:54;2.60;99.90
13354;DHT22;6746;50.892;4.064;2022-12-07T05:09:32;2.50;99.90
13354;DHT22;6746;50.892;4.064;2022-12-07T05:12:13;2.50;99.90
13354;DHT22;6746;50.892;4.064;2022-12-07T05:14:51;2.50;99.90
13354;DHT22;6746;50.892;4.064;2022-12-07T05:17:39;2.40;99.90
13354;DHT22;6746;50.892;4.064;2022-12-07T05:20:27;2.40;99.90
13354;DHT22;6746;50.892;4.064;2022-12-07T05:23:15;2.50;99.90
13354;DHT22;6746;50.892;4.064;2022-12-07T05:26:03;2.60;99.90
13354;DHT22;6746;50.892;4.064;2022-12-07T05:28:55;2.70;99.90
13354;DHT22;6746;50.892;4.064;2022-12-07T05:31:33;2.80;99.90
13354;DHT22;6746;50.892;4.064;2022-12-07T05:34:21;2.80;99.90
13354;DHT22;6746;50.892;4.064;2022-12-07T05:37:02;2.80;99.90
13354;DHT22;6746;50.892;4.064;2022-12-07T05:39:40;2.90;99.90
13354;DHT22;6746;50.892;4.064;2022-12-07T05:42:28;2.90;99.90
13354;DHT22;6746;50.892;4.064;2022-12-07T05:45:16;3.00;99.90
13354;DHT22;6746;50.892;4.064;2022-12-07T05:48:04;3.10;99.90
13354;DHT22;6746;50.892;4.064;2022-12-07T05:50:42;3.10;99.90
13354;DHT22;6746;50.892;4.064;2022-12-07T05:53:20;3.20;99.90
13354;DHT22;6746;50.892;4.064;2022-12-07T05:56:04;3.20;99.90
13354;DHT22;6746;50.892;4.064;2022-12-07T05:58:42;3.30;99.90
13354;DHT22;6746;50.892;4.064;2022-12-07T06:01:54;3.30;99.90
13354;DHT22;6746;50.892;4.064;2022-12-07T06:04:40;3.40;99.90
13354;DHT22;6746;50.892;4.064;2022-12-07T06:07:17;3.40;99.90
13354;DHT22;6746;50.892;4.064;2022-12-07T06:09:56;3.50;99.90
13354;DHT22;6746;50.892;4.064;2022-12-07T06:12:39;3.50;99.90
13354;DHT22;6746;50.892;4.064;2022-12-07T06:15:17;3.50;99.90
13354;DHT22;6746;50.892;4.064;2022-12-07T06:17:57;3.50;99.90
13354;DHT22;6746;50.892;4.064;2022-12-07T06:20:35;3.50;99.90
13354;DHT22;6746;50.892;4.064;2022-12-07T06:23:23;2.00;99.90
13354;DHT22;6746;50.892;4.064;2022-12-07T06:26:11;3.50;99.90
13354;DHT22;6746;50.892;4.064;2022-12-07T06:28:52;3.40;99.90
13354;DHT22;6746;50.892;4.064;2022-12-07T06:31:30;3.30;99.90
13354;DHT22;6746;50.892;4.064;2022-12-07T06:34:12;3.20;99.90
13354;DHT22;6746;50.892;4.064;2022-12-07T06:36:52;3.20;99.90
13354;DHT22;6746;50.892;4.064;2022-12-07T06:39:32;3.10;99.90
13354;DHT22;6746;50.892;4.064;2022-12-07T06:42:13;3.10;99.90
13354;DHT22;6746;50.892;4.064;2022-12-07T06:44:51;3.00;99.90
13354;DHT22;6746;50.892;4.064;2022-12-07T06:47:29;3.00;99.90
13354;DHT22;6746;50.892;4.064;2022-12-07T06:50:15;3.00;99.90
13354;DHT22;6746;50.892;4.064;2022-12-07T06:52:53;3.00;99.90
13354;DHT22;6746;50.892;4.064;2022-12-07T06:55:41;3.10;99.90
13354;DHT22;6746;50.892;4.064;2022-12-07T06:58:29;3.20;99.90
13354;DHT22;6746;50.892;4.064;2022-12-07T07:01:18;3.30;99.90
13354;DHT22;6746;50.892;4.064;2022-12-07T07:03:58;3.30;99.90
13354;DHT22;6746;50.892;4.064;2022-12-07T07:06:37;3.30;99.90
13354;DHT22;6746;50.892;4.064;2022-12-07T07:09:20;3.30;99.90
13354;DHT22;6746;50.892;4.064;2022-12-07T07:11:58;3.40;99.90
13354;DHT22;6746;50.892;4.064;2022-12-07T07:14:38;3.50;99.90
13354;DHT22;6746;50.892;4.064;2022-12-07T07:17:16;3.50;99.90
13354;DHT22;6746;50.892;4.064;2022-12-07T07:20:05;3.60;99.90
13354;DHT22;6746;50.892;4.064;2022-12-07T07:22:45;3.60;99.90
13354;DHT22;6746;50.892;4.064;2022-12-07T07:25:24;3.60;99.90
13354;DHT22;6746;50.892;4.064;2022-12-07T07:28:04;3.70;99.90
13354;DHT22;6746;50.892;4.064;2022-12-07T07:30:42;3.70;99.90
13354;DHT22;6746;50.892;4.064;2022-12-07T07:33:20;3.80;99.90
13354;DHT22;6746;50.892;4.064;2022-12-07T07:35:59;3.90;99.90
13354;DHT22;6746;50.892;4.064;2022-12-07T07:38:37;3.90;99.90
13354;DHT22;6746;50.892;4.064;2022-12-07T07:41:15;3.90;99.90
13354;DHT22;6746;50.892;4.064;2022-12-07T07:43:49;3.90;99.90
13354;DHT22;6746;50.892;4.064;2022-12-07T07:46:18;3.90;99.90
13354;DHT22;6746;50.892;4.064;2022-12-07T07:48:49;3.90;99.90
13354;DHT22;6746;50.892;4.064;2022-12-07T07:51:28;3.90;99.90
13354;DHT22;6746;50.892;4.064;2022-12-07T07:54:06;3.90;99.90
13354;DHT22;6746;50.892;4.064;2022-12-07T07:56:43;3.80;99.90
13354;DHT22;6746;50.892;4.064;2022-12-07T07:59:21;3.90;99.90
13354;DHT22;6746;50.892;4.064;2022-12-07T08:01:59;3.90;99.90
13354;DHT22;6746;50.892;4.064;2022-12-07T08:04:28;4.00;99.90
13354;DHT22;6746;50.892;4.064;2022-12-07T08:06:56;4.00;99.90
13354;DHT22;6746;50.892;4.064;2022-12-07T08:09:25;4.00;99.90
13354;DHT22;6746;50.892;4.064;2022-12-07T08:11:54;4.00;99.90
13354;DHT22;6746;50.892;4.064;2022-12-07T08:14:25;4.00;99.90
13354;DHT22;6746;50.892;4.064;2022-12-07T08:16:54;4.10;99.90
13354;DHT22;6746;50.892;4.064;2022-12-07T08:19:33;4.10;99.90
13354;DHT22;6746;50.892;4.064;2022-12-07T08:22:01;4.20;99.90
13354;DHT22;6746;50.892;4.064;2022-12-07T08:24:32;4.30;99.90
13354;DHT22;6746;50.892;4.064;2022-12-07T08:27:04;4.40;99.90
13354;DHT22;6746;50.892;4.064;2022-12-07T08:29:33;4.50;99.90
13354;DHT22;6746;50.892;4.064;2022-12-07T08:32:11;4.50;99.90
13354;DHT22;6746;50.892;4.064;2022-12-07T08:34:49;4.60;99.90
13354;DHT22;6746;50.892;4.064;2022-12-07T08:37:27;4.60;99.90
13354;DHT22;6746;50.892;4.064;2022-12-07T08:40:06;4.60;99.90
13354;DHT22;6746;50.892;4.064;2022-12-07T08:42:48;4.60;99.90
13354;DHT22;6746;50.892;4.064;2022-12-07T08:45:13;4.60;99.90
13354;DHT22;6746;50.892;4.064;2022-12-07T08:47:51;4.50;99.90
13354;DHT22;6746;50.892;4.064;2022-12-07T08:50:28;4.50;99.90
13354;DHT22;6746;50.892;4.064;2022-12-07T08:53:06;4.60;99.90
13354;DHT22;6746;50.892;4.064;2022-12-07T08:55:44;4.70;99.90
13354;DHT22;6746;50.892;4.064;2022-12-07T08:58:25;4.80;99.90
13354;DHT22;6746;50.892;4.064;2022-12-07T09:00:54;4.80;99.90
13354;DHT22;6746;50.892;4.064;2022-12-07T09:03:23;4.90;99.90
13354;DHT22;6746;50.892;4.064;2022-12-07T09:06:01;4.90;99.90
13354;DHT22;6746;50.892;4.064;2022-12-07T09:08:40;4.90;99.90
13354;DHT22;6746;50.892;4.064;2022-12-07T09:11:17;5.00;99.90
13354;DHT22;6746;50.892;4.064;2022-12-07T09:13:55;5.00;99.90
13354;DHT22;6746;50.892;4.064;2022-12-07T09:16:32;5.00;99.90
13354;DHT22;6746;50.892;4.064;2022-12-07T09:19:00;5.10;99.90
13354;DHT22;6746;50.892;4.064;2022-12-07T09:21:48;5.20;99.90
13354;DHT22;6746;50.892;4.064;2022-12-07T09:24:36;5.30;99.90
13354;DHT22;6746;50.892;4.064;2022-12-07T09:27:15;5.40;99.90
13354;DHT22;6746;50.892;4.064;2022-12-07T09:29:53;5.50;99.90
13354;DHT22;6746;50.892;4.064;2022-12-07T09:32:31;5.70;99.90
13354;DHT22;6746;50.892;4.064;2022-12-07T09:35:09;5.80;99.90
13354;DHT22;6746;50.892;4.064;2022-12-07T09:37:47;5.90;99.90
13354;DHT22;6746;50.892;4.064;2022-12-07T09:40:21;5.90;99.90
13354;DHT22;6746;50.892;4.064;2022-12-07T09:42:52;5.90;99.90
13354;DHT22;6746;50.892;4.064;2022-12-07T09:45:35;5.90;99.90
13354;DHT22;6746;50.892;4.064;2022-12-07T09:47:59;6.00;99.90
13354;DHT22;6746;50.892;4.064;2022-12-07T09:50:38;6.00;99.90
13354;DHT22;6746;50.892;4.064;2022-12-07T09:53:08;6.00;99.90
13354;DHT22;6746;50.892;4.064;2022-12-07T09:55:43;6.10;99.90
13354;DHT22;6746;50.892;4.064;2022-12-07T09:58:25;6.10;99.90
13354;DHT22;6746;50.892;4.064;2022-12-07T10:03:36;6.20;99.90
13354;DHT22;6746;50.892;4.064;2022-12-07T10:06:13;6.30;99.90
13354;DHT22;6746;50.892;4.064;2022-12-07T10:08:42;6.40;99.90
13354;DHT22;6746;50.892;4.064;2022-12-07T10:11:16;6.50;99.90
13354;DHT22;6746;50.892;4.064;2022-12-07T10:13:54;6.70;99.90
13354;DHT22;6746;50.892;4.064;2022-12-07T10:19:32;6.90;99.90
13354;DHT22;6746;50.892;4.064;2022-12-07T10:22:14;6.90;99.90
13354;DHT22;6746;50.892;4.064;2022-12-07T10:24:54;6.80;99.90
13354;DHT22;6746;50.892;4.064;2022-12-07T10:27:37;6.80;99.90
13354;DHT22;6746;50.892;4.064;2022-12-07T10:30:15;6.70;99.90
13354;DHT22;6746;50.892;4.064;2022-12-07T10:33:03;6.70;99.90
13354;DHT22;6746;50.892;4.064;2022-12-07T10:35:44;6.60;99.90
13354;DHT22;6746;50.892;4.064;2022-12-07T10:38:22;6.60;99.90
13354;DHT22;6746;50.892;4.064;2022-12-07T10:41:03;6.70;99.90
13354;DHT22;6746;50.892;4.064;2022-12-07T10:43:52;6.70;99.90
13354;DHT22;6746;50.892;4.064;2022-12-07T10:46:37;6.80;99.90
13354;DHT22;6746;50.892;4.064;2022-12-07T11:06:40;6.30;99.90
13354;DHT22;6746;50.892;4.064;2022-12-07T11:09:28;6.20;99.90
13354;DHT22;6746;50.892;4.064;2022-12-07T11:12:18;6.20;99.90
13354;DHT22;6746;50.892;4.064;2022-12-07T11:15:08;6.20;99.90
13354;DHT22;6746;50.892;4.064;2022-12-07T11:18:09;6.10;99.90
13354;DHT22;6746;50.892;4.064;2022-12-07T11:24:03;6.10;99.90
13354;DHT22;6746;50.892;4.064;2022-12-07T11:30:18;6.20;99.90
13354;DHT22;6746;50.892;4.064;2022-12-07T11:33:04;6.20;99.90
13354;DHT22;6746;50.892;4.064;2022-12-07T11:38:58;6.60;99.90
13354;DHT22;6746;50.892;4.064;2022-12-07T11:41:36;6.90;99.90
13354;DHT22;6746;50.892;4.064;2022-12-07T11:47:16;7.10;99.90
13354;DHT22;6746;50.892;4.064;2022-12-07T11:49:53;7.30;99.90
13354;DHT22;6746;50.892;4.064;2022-12-07T11:52:30;7.30;99.90
13354;DHT22;6746;50.892;4.064;2022-12-07T11:54:58;7.40;99.90
13354;DHT22;6746;50.892;4.064;2022-12-07T11:57:41;7.40;99.90
13354;DHT22;6746;50.892;4.064;2022-12-07T12:00:16;7.40;99.90
13354;DHT22;6746;50.892;4.064;2022-12-07T12:05:22;7.50;99.90
13354;DHT22;6746;50.892;4.064;2022-12-07T12:08:03;7.40;99.90
13354;DHT22;6746;50.892;4.064;2022-12-07T12:10:37;7.40;99.90
13354;DHT22;6746;50.892;4.064;2022-12-07T12:16:12;7.50;99.90
13354;DHT22;6746;50.892;4.064;2022-12-07T12:18:46;7.40;99.90
13354;DHT22;6746;50.892;4.064;2022-12-07T12:21:08;7.30;99.90
13354;DHT22;6746;50.892;4.064;2022-12-07T12:23:58;7.40;99.90
13354;DHT22;6746;50.892;4.064;2022-12-07T12:26:28;7.30;99.90
13354;DHT22;6746;50.892;4.064;2022-12-07T12:28:59;7.30;99.90
13354;DHT22;6746;50.892;4.064;2022-12-07T12:34:00;7.40;99.90
13354;DHT22;6746;50.892;4.064;2022-12-07T12:36:43;7.50;99.90
13354;DHT22;6746;50.892;4.064;2022-12-07T12:39:14;7.50;99.90
13354;DHT22;6746;50.892;4.064;2022-12-07T12:41:53;7.60;99.90
13354;DHT22;6746;50.892;4.064;2022-12-07T12:50:18;7.80;99.90
13354;DHT22;6746;50.892;4.064;2022-12-07T13:00:49;7.80;99.90
13354;DHT22;6746;50.892;4.064;2022-12-07T13:03:25;7.80;99.90
13354;DHT22;6746;50.892;4.064;2022-12-07T13:08:46;7.70;99.90
13354;DHT22;6746;50.892;4.064;2022-12-07T13:11:38;7.70;99.90
13354;DHT22;6746;50.892;4.064;2022-12-07T13:14:39;7.60;99.90
13354;DHT22;6746;50.892;4.064;2022-12-07T13:20:00;7.30;99.90
13354;DHT22;6746;50.892;4.064;2022-12-07T13:22:39;7.30;99.90
13354;DHT22;6746;50.892;4.064;2022-12-07T13:25:23;7.30;99.90
13354;DHT22;6746;50.892;4.064;2022-12-07T13:28:07;7.40;99.90
13354;DHT22;6746;50.892;4.064;2022-12-07T13:30:30;7.40;99.90
13354;DHT22;6746;50.892;4.064;2022-12-07T13:33:09;7.40;99.90
13354;DHT22;6746;50.892;4.064;2022-12-07T13:35:47;7.40;99.90
13354;DHT22;6746;50.892;4.064;2022-12-07T13:38:35;7.50;99.90
13354;DHT22;6746;50.892;4.064;2022-12-07T13:41:23;7.60;99.90
13354;DHT22;6746;50.892;4.064;2022-12-07T13:44:09;7.70;99.90
13354;DHT22;6746;50.892;4.064;2022-12-07T13:47:06;7.70;99.90
13354;DHT22;6746;50.892;4.064;2022-12-07T13:49:48;7.80;99.90
13354;DHT22;6746;50.892;4.064;2022-12-07T13:52:26;7.80;99.90
13354;DHT22;6746;50.892;4.064;2022-12-07T13:57:53;7.80;99.90
13354;DHT22;6746;50.892;4.064;2022-12-07T14:00:31;7.70;99.90
13354;DHT22;6746;50.892;4.064;2022-12-07T14:06:03;7.70;99.90
13354;DHT22;6746;50.892;4.064;2022-12-07T14:08:29;7.60;99.90
13354;DHT22;6746;50.892;4.064;2022-12-07T14:11:06;7.60;99.90
13354;DHT22;6746;50.892;4.064;2022-12-07T14:13:44;7.50;99.90
13354;DHT22;6746;50.892;4.064;2022-12-07T14:16:24;7.50;99.90
13354;DHT22;6746;50.892;4.064;2022-12-07T14:19:06;7.40;99.90
13354;DHT22;6746;50.892;4.064;2022-12-07T14:22:05;7.40;99.90
13354;DHT22;6746;50.892;4.064;2022-12-07T14:24:20;7.30;99.90
13354;DHT22;6746;50.892;4.064;2022-12-07T14:26:49;7.30;99.90
13354;DHT22;6746;50.892;4.064;2022-12-07T14:32:13;7.20;99.90
13354;DHT22;6746;50.892;4.064;2022-12-07T14:34:39;7.20;99.90
13354;DHT22;6746;50.892;4.064;2022-12-07T14:37:10;7.10;99.90
13354;DHT22;6746;50.892;4.064;2022-12-07T14:39:41;7.10;99.90
13354;DHT22;6746;50.892;4.064;2022-12-07T14:42:23;7.10;99.90
13354;DHT22;6746;50.892;4.064;2022-12-07T14:45:01;7.10;99.90
13354;DHT22;6746;50.892;4.064;2022-12-07T14:47:48;7.10;99.90
13354;DHT22;6746;50.892;4.064;2022-12-07T14:50:33;7.10;99.90
13354;DHT22;6746;50.892;4.064;2022-12-07T14:53:06;7.00;99.90
13354;DHT22;6746;50.892;4.064;2022-12-07T14:55:34;7.00;99.90
13354;DHT22;6746;50.892;4.064;2022-12-07T14:58:16;7.00;99.90
13354;DHT22;6746;50.892;4.064;2022-12-07T15:00:44;7.00;99.90
13354;DHT22;6746;50.892;4.064;2022-12-07T15:03:13;7.00;99.90
13354;DHT22;6746;50.892;4.064;2022-12-07T15:05:42;6.90;99.90
13354;DHT22;6746;50.892;4.064;2022-12-07T15:08:14;6.90;99.90
13354;DHT22;6746;50.892;4.064;2022-12-07T15:10:49;6.80;99.90
13354;DHT22;6746;50.892;4.064;2022-12-07T15:13:27;6.70;99.90
13354;DHT22;6746;50.892;4.064;2022-12-07T15:16:23;6.70;99.90
13354;DHT22;6746;50.892;4.064;2022-12-07T15:19:01;6.50;99.90
13354;DHT22;6746;50.892;4.064;2022-12-07T15:21:49;6.50;99.90
13354;DHT22;6746;50.892;4.064;2022-12-07T15:24:37;6.50;99.90
13354;DHT22;6746;50.892;4.064;2022-12-07T15:27:18;6.40;99.90
13354;DHT22;6746;50.892;4.064;2022-12-07T15:29:57;6.30;99.90
13354;DHT22;6746;50.892;4.064;2022-12-07T15:32:35;6.20;99.90
13354;DHT22;6746;50.892;4.064;2022-12-07T15:35:13;6.20;99.90
13354;DHT22;6746;50.892;4.064;2022-12-07T15:38:01;6.10;99.90
13354;DHT22;6746;50.892;4.064;2022-12-07T15:40:50;6.10;99.90
13354;DHT22;6746;50.892;4.064;2022-12-07T15:43:26;6.10;99.90
13354;DHT22;6746;50.892;4.064;2022-12-07T15:46:12;6.00;99.90
13354;DHT22;6746;50.892;4.064;2022-12-07T15:48:51;6.00;99.90
13354;DHT22;6746;50.892;4.064;2022-12-07T15:51:39;5.90;99.90
13354;DHT22;6746;50.892;4.064;2022-12-07T15:54:18;6.00;99.90
13354;DHT22;6746;50.892;4.064;2022-12-07T15:56:44;5.90;99.90
13354;DHT22;6746;50.892;4.064;2022-12-07T15:59:21;5.90;99.90
13354;DHT22;6746;50.892;4.064;2022-12-07T16:01:49;5.90;99.90
13354;DHT22;6746;50.892;4.064;2022-12-07T16:04:28;5.90;99.90
13354;DHT22;6746;50.892;4.064;2022-12-07T16:07:11;7.60;99.90
13354;DHT22;6746;50.892;4.064;2022-12-07T16:09:49;5.80;99.90
13354;DHT22;6746;50.892;4.064;2022-12-07T16:12:36;5.70;99.90
13354;DHT22;6746;50.892;4.064;2022-12-07T16:15:24;5.70;99.90
13354;DHT22;6746;50.892;4.064;2022-12-07T16:18:06;5.70;99.90
13354;DHT22;6746;50.892;4.064;2022-12-07T16:20:46;5.70;99.90
13354;DHT22;6746;50.892;4.064;2022-12-07T16:23:23;5.70;99.90
13354;DHT22;6746;50.892;4.064;2022-12-07T16:26:10;5.80;99.90
13354;DHT22;6746;50.892;4.064;2022-12-07T16:28:45;5.70;99.90
13354;DHT22;6746;50.892;4.064;2022-12-07T16:31:24;5.60;99.90
13354;DHT22;6746;50.892;4.064;2022-12-07T16:34:09;5.60;99.90
13354;DHT22;6746;50.892;4.064;2022-12-07T16:36:47;5.60;99.90
13354;DHT22;6746;50.892;4.064;2022-12-07T16:39:28;5.50;99.90
13354;DHT22;6746;50.892;4.064;2022-12-07T16:42:06;5.50;99.90
13354;DHT22;6746;50.892;4.064;2022-12-07T16:44:47;5.50;99.90
13354;DHT22;6746;50.892;4.064;2022-12-07T16:47:25;5.40;99.90
13354;DHT22;6746;50.892;4.064;2022-12-07T16:50:04;5.40;99.90
13354;DHT22;6746;50.892;4.064;2022-12-07T16:52:42;5.30;99.90
13354;DHT22;6746;50.892;4.064;2022-12-07T16:55:20;5.30;99.90
13354;DHT22;6746;50.892;4.064;2022-12-07T16:57:58;5.30;99.90
13354;DHT22;6746;50.892;4.064;2022-12-07T17:00:37;5.30;99.90
13354;DHT22;6746;50.892;4.064;2022-12-07T17:03:14;5.30;99.90
13354;DHT22;6746;50.892;4.064;2022-12-07T17:05:53;5.20;99.90
13354;DHT22;6746;50.892;4.064;2022-12-07T17:08:31;5.20;99.90
13354;DHT22;6746;50.892;4.064;2022-12-07T17:11:13;5.30;99.90
13354;DHT22;6746;50.892;4.064;2022-12-07T17:13:52;5.30;99.90
13354;DHT22;6746;50.892;4.064;2022-12-07T17:16:49;5.40;99.90
13354;DHT22;6746;50.892;4.064;2022-12-07T17:19:27;5.40;99.90
13354;DHT22;6746;50.892;4.064;2022-12-07T17:22:05;5.40;99.90
13354;DHT22;6746;50.892;4.064;2022-12-07T17:24:43;5.40;99.90
13354;DHT22;6746;50.892;4.064;2022-12-07T17:27:22;5.40;99.90
13354;DHT22;6746;50.892;4.064;2022-12-07T17:30:00;5.40;99.90
13354;DHT22;6746;50.892;4.064;2022-12-07T17:32:43;5.40;99.90
13354;DHT22;6746;50.892;4.064;2022-12-07T17:35:22;5.50;99.90
13354;DHT22;6746;50.892;4.064;2022-12-07T17:38:10;5.50;99.90
13354;DHT22;6746;50.892;4.064;2022-12-07T17:40:51;5.50;99.90
13354;DHT22;6746;50.892;4.064;2022-12-07T17:43:29;5.50;99.90
13354;DHT22;6746;50.892;4.064;2022-12-07T17:46:10;5.50;99.90
13354;DHT22;6746;50.892;4.064;2022-12-07T17:48:48;5.50;99.90
13354;DHT22;6746;50.892;4.064;2022-12-07T17:51:29;5.50;99.90
13354;DHT22;6746;50.892;4.064;2022-12-07T17:54:25;5.40;99.90
13354;DHT22;6746;50.892;4.064;2022-12-07T17:57:03;5.40;99.90
13354;DHT22;6746;50.892;4.064;2022-12-07T17:59:41;5.40;99.90
13354;DHT22;6746;50.892;4.064;2022-12-07T18:02:22;5.40;99.90
13354;DHT22;6746;50.892;4.064;2022-12-07T18:05:00;5.30;99.90
13354;DHT22;6746;50.892;4.064;2022-12-07T18:07:47;5.30;99.90
13354;DHT22;6746;50.892;4.064;2022-12-07T18:10:35;5.20;99.90
13354;DHT22;6746;50.892;4.064;2022-12-07T18:13:21;5.10;99.90
13354;DHT22;6746;50.892;4.064;2022-12-07T18:16:16;5.00;99.90
13354;DHT22;6746;50.892;4.064;2022-12-07T18:19:03;4.80;99.90
13354;DHT22;6746;50.892;4.064;2022-12-07T18:21:50;4.80;99.90
13354;DHT22;6746;50.892;4.064;2022-12-07T18:24:39;4.70;99.90
13354;DHT22;6746;50.892;4.064;2022-12-07T18:27:22;4.60;99.90
13354;DHT22;6746;50.892;4.064;2022-12-07T18:30:03;4.50;99.90
13354;DHT22;6746;50.892;4.064;2022-12-07T18:32:51;4.50;99.90
13354;DHT22;6746;50.892;4.064;2022-12-07T18:35:29;4.40;99.90
13354;DHT22;6746;50.892;4.064;2022-12-07T18:38:08;4.40;99.90
13354;DHT22;6746;50.892;4.064;2022-12-07T18:40:48;4.40;99.90
13354;DHT22;6746;50.892;4.064;2022-12-07T18:43:28;4.30;99.90
13354;DHT22;6746;50.892;4.064;2022-12-07T18:46:18;4.30;99.90
13354;DHT22;6746;50.892;4.064;2022-12-07T18:49:00;4.20;99.90
13354;DHT22;6746;50.892;4.064;2022-12-07T18:51:38;4.20;99.90
13354;DHT22;6746;50.892;4.064;2022-12-07T18:54:17;4.20;99.90
13354;DHT22;6746;50.892;4.064;2022-12-07T18:56:55;4.20;99.90